sensor_id;sensor_type;location;lat;lon;timestamp;temperature;humidity
45383;DHT22;42455;51.660;5.824;2022-10-13T00:01:22;12.9;92.5
45383;DHT22;42455;51.660;5.824;2022-10-13T00:06:27;12.9;93.0
45383;DHT22;42455;51.660;5.824;2022-10-13T00:11:33;13.0;93.0
45383;DHT22;42455;51.660;5.824;2022-10-13T00:16:39;13.0;93.0
45383;DHT22;42455;51.660;5.824;2022-10-13T00:21:45;13.0;93.0
45383;DHT22;42455;51.660;5.824;2022-10-13T00:26:51;13.0;93.0
45383;DHT22;42455;51.660;5.824;2022-10-13T00:31:58;13.1;93.0
45383;DHT22;42455;51.660;5.824;2022-10-13T00:37:04;13.1;93.0
45383;DHT22;42455;51.660;5.824;2022-10-13T00:42:12;13.2;93.5
45383;DHT22;42455;51.660;5.824;2022-10-13T00:47:17;13.3;93.5
45383;DHT22;42455;51.660;5.824;2022-10-13T00:52:24;13.3;93.5
45383;DHT22;42455;51.660;5.824;2022-10-13T00:57:29;13.4;93.5
45383;DHT22;42455;51.660;5.824;2022-10-13T01:02:36;13.4;93.5
45383;DHT22;42455;51.660;5.824;2022-10-13T01:07:41;13.5;93.5
45383;DHT22;42455;51.660;5.824;2022-10-13T01:13:01;13.5;93.5
45383;DHT22;42455;51.660;5.824;2022-10-13T01:18:15;13.5;93.5
45383;DHT22;42455;51.660;5.824;2022-10-13T01:23:22;13.6;93.5
45383;DHT22;42455;51.660;5.824;2022-10-13T01:29:45;13.6;93.5
45383;DHT22;42455;51.660;5.824;2022-10-13T01:33:16;13.6;93.5
45383;DHT22;42455;51.660;5.824;2022-10-13T01:38:28;13.6;93.5
45383;DHT22;42455;51.660;5.824;2022-10-13T01:43:26;13.7;93.5
45383;DHT22;42455;51.660;5.824;2022-10-13T01:48:30;13.7;93.5
45383;DHT22;42455;51.660;5.824;2022-10-13T01:53:35;13.7;93.5
45383;DHT22;42455;51.660;5.824;2022-10-13T01:58:41;13.7;93.5
45383;DHT22;42455;51.660;5.824;2022-10-13T02:04:22;13.7;93.5
45383;DHT22;42455;51.660;5.824;2022-10-13T02:08:59;13.8;93.5
45383;DHT22;42455;51.660;5.824;2022-10-13T02:14:17;13.8;93.5
45383;DHT22;42455;51.660;5.824;2022-10-13T02:19:08;13.9;93.5
45383;DHT22;42455;51.660;5.824;2022-10-13T02:24:13;13.9;93.5
45383;DHT22;42455;51.660;5.824;2022-10-13T02:29:19;13.9;93.5
45383;DHT22;42455;51.660;5.824;2022-10-13T02:34:25;13.9;93.5
45383;DHT22;42455;51.660;5.824;2022-10-13T02:39:31;14.0;94.0
45383;DHT22;42455;51.660;5.824;2022-10-13T02:44:37;14.1;94.0
45383;DHT22;42455;51.660;5.824;2022-10-13T02:49:43;14.1;94.0
45383;DHT22;42455;51.660;5.824;2022-10-13T02:54:50;14.2;94.0
45383;DHT22;42455;51.660;5.824;2022-10-13T02:59:56;14.2;94.0
45383;DHT22;42455;51.660;5.824;2022-10-13T03:05:02;14.2;94.0
45383;DHT22;42455;51.660;5.824;2022-10-13T03:10:08;14.2;93.5
45383;DHT22;42455;51.660;5.824;2022-10-13T03:15:15;14.3;93.5
45383;DHT22;42455;51.660;5.824;2022-10-13T03:20:21;14.2;93.5
45383;DHT22;42455;51.660;5.824;2022-10-13T03:25:27;14.2;93.5
45383;DHT22;42455;51.660;5.824;2022-10-13T03:30:32;14.2;93.5
45383;DHT22;42455;51.660;5.824;2022-10-13T03:35:38;14.3;93.5
45383;DHT22;42455;51.660;5.824;2022-10-13T03:40:44;14.2;93.5
45383;DHT22;42455;51.660;5.824;2022-10-13T03:45:55;14.2;93.5
45383;DHT22;42455;51.660;5.824;2022-10-13T03:50:57;14.2;93.5
45383;DHT22;42455;51.660;5.824;2022-10-13T03:56:04;14.2;93.5
45383;DHT22;42455;51.660;5.824;2022-10-13T04:01:09;14.2;93.5
45383;DHT22;42455;51.660;5.824;2022-10-13T04:06:16;14.2;93.5
45383;DHT22;42455;51.660;5.824;2022-10-13T04:11:22;14.2;93.5
45383;DHT22;42455;51.660;5.824;2022-10-13T04:16:29;14.2;93.5
45383;DHT22;42455;51.660;5.824;2022-10-13T04:21:34;14.2;94.0
45383;DHT22;42455;51.660;5.824;2022-10-13T04:26:41;14.2;94.0
45383;DHT22;42455;51.660;5.824;2022-10-13T04:31:46;14.2;94.0
45383;DHT22;42455;51.660;5.824;2022-10-13T04:36:53;14.1;94.0
45383;DHT22;42455;51.660;5.824;2022-10-13T04:41:59;14.1;94.0
45383;DHT22;42455;51.660;5.824;2022-10-13T04:47:05;14.2;94.0
45383;DHT22;42455;51.660;5.824;2022-10-13T04:52:11;14.2;94.0
45383;DHT22;42455;51.660;5.824;2022-10-13T04:57:18;14.2;94.0
45383;DHT22;42455;51.660;5.824;2022-10-13T05:02:24;14.2;94.0
45383;DHT22;42455;51.660;5.824;2022-10-13T05:07:30;14.2;94.0
45383;DHT22;42455;51.660;5.824;2022-10-13T05:17:42;14.2;94.0
45383;DHT22;42455;51.660;5.824;2022-10-13T05:22:48;14.2;94.0
45383;DHT22;42455;51.660;5.824;2022-10-13T05:27:54;14.2;94.0
45383;DHT22;42455;51.660;5.824;2022-10-13T05:32:59;14.2;94.0
45383;DHT22;42455;51.660;5.824;2022-10-13T05:38:05;14.2;94.0
45383;DHT22;42455;51.660;5.824;2022-10-13T05:43:11;14.2;94.0
45383;DHT22;42455;51.660;5.824;2022-10-13T05:48:18;14.2;94.0
45383;DHT22;42455;51.660;5.824;2022-10-13T05:53:26;14.2;94.0
45383;DHT22;42455;51.660;5.824;2022-10-13T05:58:31;14.1;94.0
45383;DHT22;42455;51.660;5.824;2022-10-13T06:03:37;14.1;94.0
45383;DHT22;42455;51.660;5.824;2022-10-13T06:08:43;14.1;94.0
45383;DHT22;42455;51.660;5.824;2022-10-13T06:13:49;14.1;94.0
45383;DHT22;42455;51.660;5.824;2022-10-13T06:18:55;14.1;94.5
45383;DHT22;42455;51.660;5.824;2022-10-13T06:24:02;14.2;94.5
45383;DHT22;42455;51.660;5.824;2022-10-13T06:29:07;14.1;94.5
45383;DHT22;42455;51.660;5.824;2022-10-13T06:34:14;14.2;94.5
45383;DHT22;42455;51.660;5.824;2022-10-13T06:39:20;14.2;94.5
45383;DHT22;42455;51.660;5.824;2022-10-13T06:44:26;14.3;94.5
45383;DHT22;42455;51.660;5.824;2022-10-13T06:49:32;14.3;94.5
45383;DHT22;42455;51.660;5.824;2022-10-13T06:54:38;14.3;94.5
45383;DHT22;42455;51.660;5.824;2022-10-13T06:59:45;14.4;94.5
45383;DHT22;42455;51.660;5.824;2022-10-13T07:04:51;14.5;94.5
45383;DHT22;42455;51.660;5.824;2022-10-13T07:09:57;14.5;94.5
45383;DHT22;42455;51.660;5.824;2022-10-13T07:15:04;14.6;94.5
45383;DHT22;42455;51.660;5.824;2022-10-13T07:25:15;14.7;94.5
45383;DHT22;42455;51.660;5.824;2022-10-13T07:30:21;14.8;94.5
45383;DHT22;42455;51.660;5.824;2022-10-13T07:35:26;14.8;94.5
45383;DHT22;42455;51.660;5.824;2022-10-13T07:40:33;14.9;94.5
45383;DHT22;42455;51.660;5.824;2022-10-13T07:45:39;14.9;94.5
45383;DHT22;42455;51.660;5.824;2022-10-13T07:50:45;15.0;94.5
45383;DHT22;42455;51.660;5.824;2022-10-13T07:55:51;15.0;94.5
45383;DHT22;42455;51.660;5.824;2022-10-13T08:01:00;15.0;94.5
45383;DHT22;42455;51.660;5.824;2022-10-13T08:06:05;15.1;94.0
45383;DHT22;42455;51.660;5.824;2022-10-13T08:11:12;15.1;94.0
45383;DHT22;42455;51.660;5.824;2022-10-13T08:16:16;15.2;94.0
45383;DHT22;42455;51.660;5.824;2022-10-13T08:21:23;15.2;94.0
45383;DHT22;42455;51.660;5.824;2022-10-13T08:26:29;15.3;94.0
45383;DHT22;42455;51.660;5.824;2022-10-13T08:31:35;15.4;94.0
45383;DHT22;42455;51.660;5.824;2022-10-13T08:36:41;15.4;94.0
45383;DHT22;42455;51.660;5.824;2022-10-13T08:41:47;15.5;94.0
45383;DHT22;42455;51.660;5.824;2022-10-13T08:47:03;15.6;94.0
45383;DHT22;42455;51.660;5.824;2022-10-13T08:52:02;15.7;94.0
45383;DHT22;42455;51.660;5.824;2022-10-13T08:57:07;15.8;94.0
45383;DHT22;42455;51.660;5.824;2022-10-13T09:02:14;16.0;93.5
45383;DHT22;42455;51.660;5.824;2022-10-13T09:07:20;16.1;93.5
45383;DHT22;42455;51.660;5.824;2022-10-13T09:12:25;16.2;93.5
45383;DHT22;42455;51.660;5.824;2022-10-13T09:17:31;16.4;93.5
45383;DHT22;42455;51.660;5.824;2022-10-13T09:22:37;16.6;93.0
45383;DHT22;42455;51.660;5.824;2022-10-13T09:27:43;16.7;93.0
45383;DHT22;42455;51.660;5.824;2022-10-13T09:32:47;16.9;92.5
45383;DHT22;42455;51.660;5.824;2022-10-13T09:38:02;17.0;92.5
45383;DHT22;42455;51.660;5.824;2022-10-13T09:43:02;17.0;92.0
45383;DHT22;42455;51.660;5.824;2022-10-13T09:48:14;17.1;92.0
45383;DHT22;42455;51.660;5.824;2022-10-13T09:53:24;17.1;91.5
45383;DHT22;42455;51.660;5.824;2022-10-13T09:58:27;17.1;91.5
45383;DHT22;42455;51.660;5.824;2022-10-13T10:03:26;17.1;91.5
45383;DHT22;42455;51.660;5.824;2022-10-13T10:08:38;17.1;91.5
45383;DHT22;42455;51.660;5.824;2022-10-13T10:13:37;17.1;91.0
45383;DHT22;42455;51.660;5.824;2022-10-13T10:18:47;17.2;91.0
45383;DHT22;42455;51.660;5.824;2022-10-13T10:23:54;17.1;91.0
45383;DHT22;42455;51.660;5.824;2022-10-13T10:29:16;17.1;91.0
45383;DHT22;42455;51.660;5.824;2022-10-13T10:34:27;17.2;91.0
45383;DHT22;42455;51.660;5.824;2022-10-13T10:39:15;17.2;91.0
45383;DHT22;42455;51.660;5.824;2022-10-13T10:44:16;17.2;91.0
45383;DHT22;42455;51.660;5.824;2022-10-13T10:49:29;17.2;91.0
45383;DHT22;42455;51.660;5.824;2022-10-13T10:54:39;17.2;91.0
45383;DHT22;42455;51.660;5.824;2022-10-13T10:59:48;17.1;91.5
45383;DHT22;42455;51.660;5.824;2022-10-13T11:04:46;17.1;91.5
45383;DHT22;42455;51.660;5.824;2022-10-13T11:10:00;17.1;91.5
45383;DHT22;42455;51.660;5.824;2022-10-13T11:15:02;17.1;92.0
45383;DHT22;42455;51.660;5.824;2022-10-13T11:19:57;17.0;92.0
45383;DHT22;42455;51.660;5.824;2022-10-13T11:25:33;16.9;92.0
45383;DHT22;42455;51.660;5.824;2022-10-13T11:30:40;16.9;92.5
45383;DHT22;42455;51.660;5.824;2022-10-13T11:35:19;16.9;92.5
45383;DHT22;42455;51.660;5.824;2022-10-13T11:40:34;16.9;93.0
45383;DHT22;42455;51.660;5.824;2022-10-13T11:45:46;16.9;93.0
45383;DHT22;42455;51.660;5.824;2022-10-13T11:50:58;16.9;93.5
45383;DHT22;42455;51.660;5.824;2022-10-13T11:55:47;16.9;93.5
45383;DHT22;42455;51.660;5.824;2022-10-13T12:00:49;16.9;93.5
45383;DHT22;42455;51.660;5.824;2022-10-13T12:05:52;17.0;93.5
45383;DHT22;42455;51.660;5.824;2022-10-13T12:10:59;17.0;93.5
45383;DHT22;42455;51.660;5.824;2022-10-13T12:16:05;16.9;93.5
45383;DHT22;42455;51.660;5.824;2022-10-13T12:21:13;16.9;94.0
45383;DHT22;42455;51.660;5.824;2022-10-13T12:26:19;16.9;94.0
45383;DHT22;42455;51.660;5.824;2022-10-13T12:31:25;16.9;94.0
45383;DHT22;42455;51.660;5.824;2022-10-13T12:36:29;16.9;94.5
45383;DHT22;42455;51.660;5.824;2022-10-13T12:41:39;16.9;94.5
45383;DHT22;42455;51.660;5.824;2022-10-13T12:46:42;16.9;94.5
45383;DHT22;42455;51.660;5.824;2022-10-13T12:51:47;16.9;95.0
45383;DHT22;42455;51.660;5.824;2022-10-13T12:56:55;16.8;95.0
45383;DHT22;42455;51.660;5.824;2022-10-13T13:02:00;16.8;95.0
45383;DHT22;42455;51.660;5.824;2022-10-13T13:07:26;16.8;95.0
45383;DHT22;42455;51.660;5.824;2022-10-13T13:12:17;16.8;95.0
45383;DHT22;42455;51.660;5.824;2022-10-13T13:17:21;16.7;95.0
45383;DHT22;42455;51.660;5.824;2022-10-13T13:22:23;16.7;95.0
45383;DHT22;42455;51.660;5.824;2022-10-13T13:27:39;16.7;95.0
45383;DHT22;42455;51.660;5.824;2022-10-13T13:32:34;16.6;95.0
45383;DHT22;42455;51.660;5.824;2022-10-13T13:37:43;16.5;95.5
45383;DHT22;42455;51.660;5.824;2022-10-13T13:42:47;16.5;95.5
45383;DHT22;42455;51.660;5.824;2022-10-13T13:47:53;16.5;95.5
45383;DHT22;42455;51.660;5.824;2022-10-13T13:53:00;16.6;95.5
45383;DHT22;42455;51.660;5.824;2022-10-13T13:58:05;16.6;96.0
45383;DHT22;42455;51.660;5.824;2022-10-13T14:03:11;16.6;96.0
45383;DHT22;42455;51.660;5.824;2022-10-13T14:08:18;16.6;96.0
45383;DHT22;42455;51.660;5.824;2022-10-13T14:13:24;16.6;96.5
45383;DHT22;42455;51.660;5.824;2022-10-13T14:18:30;16.7;96.5
45383;DHT22;42455;51.660;5.824;2022-10-13T14:23:36;16.7;96.5
45383;DHT22;42455;51.660;5.824;2022-10-13T14:28:43;16.6;96.5
45383;DHT22;42455;51.660;5.824;2022-10-13T14:33:49;16.6;96.5
45383;DHT22;42455;51.660;5.824;2022-10-13T14:38:55;16.5;96.5
45383;DHT22;42455;51.660;5.824;2022-10-13T14:44:01;16.5;96.5
45383;DHT22;42455;51.660;5.824;2022-10-13T14:49:08;16.6;97.0
45383;DHT22;42455;51.660;5.824;2022-10-13T14:54:13;16.6;97.0
45383;DHT22;42455;51.660;5.824;2022-10-13T14:59:20;16.6;97.0
45383;DHT22;42455;51.660;5.824;2022-10-13T15:04:26;16.6;97.0
45383;DHT22;42455;51.660;5.824;2022-10-13T15:09:32;16.6;97.0
45383;DHT22;42455;51.660;5.824;2022-10-13T15:14:38;16.6;97.5
45383;DHT22;42455;51.660;5.824;2022-10-13T15:19:44;16.6;97.0
45383;DHT22;42455;51.660;5.824;2022-10-13T15:24:50;16.6;97.5
45383;DHT22;42455;51.660;5.824;2022-10-13T15:29:55;16.5;97.5
45383;DHT22;42455;51.660;5.824;2022-10-13T15:40:08;16.6;97.5
45383;DHT22;42455;51.660;5.824;2022-10-13T15:45:14;16.6;97.5
45383;DHT22;42455;51.660;5.824;2022-10-13T15:50:20;16.6;97.5
45383;DHT22;42455;51.660;5.824;2022-10-13T15:55:26;16.6;97.5
45383;DHT22;42455;51.660;5.824;2022-10-13T16:00:32;16.6;97.5
45383;DHT22;42455;51.660;5.824;2022-10-13T16:05:39;16.6;97.5
45383;DHT22;42455;51.660;5.824;2022-10-13T16:10:45;16.5;97.5
45383;DHT22;42455;51.660;5.824;2022-10-13T16:15:55;16.5;97.5
45383;DHT22;42455;51.660;5.824;2022-10-13T16:20:57;16.5;97.5
45383;DHT22;42455;51.660;5.824;2022-10-13T16:26:04;16.5;97.5
45383;DHT22;42455;51.660;5.824;2022-10-13T16:36:17;16.5;97.5
45383;DHT22;42455;51.660;5.824;2022-10-13T16:41:22;16.5;97.5
45383;DHT22;42455;51.660;5.824;2022-10-13T16:46:28;16.4;97.5
45383;DHT22;42455;51.660;5.824;2022-10-13T16:51:34;16.4;97.5
45383;DHT22;42455;51.660;5.824;2022-10-13T16:56:40;16.4;97.5
45383;DHT22;42455;51.660;5.824;2022-10-13T17:01:47;16.4;97.5
45383;DHT22;42455;51.660;5.824;2022-10-13T17:06:53;16.4;97.5
45383;DHT22;42455;51.660;5.824;2022-10-13T17:11:59;16.3;97.5
45383;DHT22;42455;51.660;5.824;2022-10-13T17:17:05;16.3;97.5
45383;DHT22;42455;51.660;5.824;2022-10-13T17:22:12;16.2;97.5
45383;DHT22;42455;51.660;5.824;2022-10-13T17:27:17;16.2;97.5
45383;DHT22;42455;51.660;5.824;2022-10-13T17:32:23;16.2;97.5
45383;DHT22;42455;51.660;5.824;2022-10-13T17:37:28;16.2;97.5
45383;DHT22;42455;51.660;5.824;2022-10-13T17:42:34;16.1;97.5
45383;DHT22;42455;51.660;5.824;2022-10-13T17:47:46;16.1;97.5
45383;DHT22;42455;51.660;5.824;2022-10-13T17:52:47;16.1;97.5
45383;DHT22;42455;51.660;5.824;2022-10-13T17:57:53;16.0;97.5
45383;DHT22;42455;51.660;5.824;2022-10-13T18:02:59;16.0;97.5
45383;DHT22;42455;51.660;5.824;2022-10-13T18:08:05;16.0;97.5
45383;DHT22;42455;51.660;5.824;2022-10-13T18:13:12;16.0;98.0
45383;DHT22;42455;51.660;5.824;2022-10-13T18:18:18;16.0;98.0
45383;DHT22;42455;51.660;5.824;2022-10-13T18:23:25;16.0;98.0
45383;DHT22;42455;51.660;5.824;2022-10-13T18:28:32;15.9;98.0
45383;DHT22;42455;51.660;5.824;2022-10-13T18:33:37;15.9;98.0
45383;DHT22;42455;51.660;5.824;2022-10-13T18:38:43;15.9;98.0
45383;DHT22;42455;51.660;5.824;2022-10-13T18:43:49;15.9;98.0
45383;DHT22;42455;51.660;5.824;2022-10-13T18:48:55;15.9;98.0
45383;DHT22;42455;51.660;5.824;2022-10-13T18:54:02;15.9;98.0
45383;DHT22;42455;51.660;5.824;2022-10-13T18:59:09;15.9;98.0
45383;DHT22;42455;51.660;5.824;2022-10-13T19:04:14;15.9;98.0
45383;DHT22;42455;51.660;5.824;2022-10-13T19:09:20;15.9;98.0
45383;DHT22;42455;51.660;5.824;2022-10-13T19:14:26;15.9;98.0
45383;DHT22;42455;51.660;5.824;2022-10-13T19:19:32;15.9;98.0
45383;DHT22;42455;51.660;5.824;2022-10-13T19:24:38;15.9;98.5
45383;DHT22;42455;51.660;5.824;2022-10-13T19:29:44;15.8;98.5
45383;DHT22;42455;51.660;5.824;2022-10-13T19:34:50;15.8;98.5
45383;DHT22;42455;51.660;5.824;2022-10-13T19:45:04;15.8;98.0
45383;DHT22;42455;51.660;5.824;2022-10-13T19:50:07;15.7;98.5
45383;DHT22;42455;51.660;5.824;2022-10-13T19:55:13;15.7;98.5
45383;DHT22;42455;51.660;5.824;2022-10-13T20:00:19;15.7;98.5
45383;DHT22;42455;51.660;5.824;2022-10-13T20:05:25;15.7;98.5
45383;DHT22;42455;51.660;5.824;2022-10-13T20:10:32;15.7;98.5
45383;DHT22;42455;51.660;5.824;2022-10-13T20:15:39;15.7;98.5
45383;DHT22;42455;51.660;5.824;2022-10-13T20:20:44;15.7;98.5
45383;DHT22;42455;51.660;5.824;2022-10-13T20:25:50;15.6;98.5
45383;DHT22;42455;51.660;5.824;2022-10-13T20:30:56;15.6;98.5
45383;DHT22;42455;51.660;5.824;2022-10-13T20:36:04;15.6;98.5
45383;DHT22;42455;51.660;5.824;2022-10-13T20:41:15;15.6;98.5
45383;DHT22;42455;51.660;5.824;2022-10-13T20:46:17;15.6;98.5
45383;DHT22;42455;51.660;5.824;2022-10-13T20:51:22;15.6;98.5
45383;DHT22;42455;51.660;5.824;2022-10-13T20:56:28;15.6;98.5
45383;DHT22;42455;51.660;5.824;2022-10-13T21:01:34;15.6;98.5
45383;DHT22;42455;51.660;5.824;2022-10-13T21:06:40;15.6;98.5
45383;DHT22;42455;51.660;5.824;2022-10-13T21:11:46;15.6;98.5
45383;DHT22;42455;51.660;5.824;2022-10-13T21:16:52;15.6;98.5
45383;DHT22;42455;51.660;5.824;2022-10-13T21:27:05;15.6;98.5
45383;DHT22;42455;51.660;5.824;2022-10-13T21:32:11;15.6;98.5
45383;DHT22;42455;51.660;5.824;2022-10-13T21:37:17;15.6;98.5
45383;DHT22;42455;51.660;5.824;2022-10-13T21:42:23;15.6;98.5
45383;DHT22;42455;51.660;5.824;2022-10-13T21:47:29;15.6;98.5
45383;DHT22;42455;51.660;5.824;2022-10-13T21:52:35;15.6;98.5
45383;DHT22;42455;51.660;5.824;2022-10-13T21:57:41;15.5;98.5
45383;DHT22;42455;51.660;5.824;2022-10-13T22:02:47;15.6;98.5
45383;DHT22;42455;51.660;5.824;2022-10-13T22:07:52;15.5;98.5
45383;DHT22;42455;51.660;5.824;2022-10-13T22:12:59;15.5;98.5
45383;DHT22;42455;51.660;5.824;2022-10-13T22:18:05;15.5;98.5
45383;DHT22;42455;51.660;5.824;2022-10-13T22:23:12;15.5;98.5
45383;DHT22;42455;51.660;5.824;2022-10-13T22:28:17;15.5;98.5
45383;DHT22;42455;51.660;5.824;2022-10-13T22:33:23;15.4;98.5
45383;DHT22;42455;51.660;5.824;2022-10-13T22:38:30;15.4;98.5
45383;DHT22;42455;51.660;5.824;2022-10-13T22:43:36;15.4;98.5
45383;DHT22;42455;51.660;5.824;2022-10-13T22:48:42;15.4;98.5
45383;DHT22;42455;51.660;5.824;2022-10-13T22:53:49;15.4;98.5
45383;DHT22;42455;51.660;5.824;2022-10-13T22:58:56;15.4;98.5
45383;DHT22;42455;51.660;5.824;2022-10-13T23:04:01;15.4;98.5
45383;DHT22;42455;51.660;5.824;2022-10-13T23:09:10;15.4;98.5
45383;DHT22;42455;51.660;5.824;2022-10-13T23:14:13;15.4;98.5
45383;DHT22;42455;51.660;5.824;2022-10-13T23:19:19;15.4;98.5
45383;DHT22;42455;51.660;5.824;2022-10-13T23:24:26;15.4;98.5
45383;DHT22;42455;51.660;5.824;2022-10-13T23:29:32;15.4;98.5
45383;DHT22;42455;51.660;5.824;2022-10-13T23:34:38;15.4;98.5
45383;DHT22;42455;51.660;5.824;2022-10-13T23:39:44;15.4;98.5
45383;DHT22;42455;51.660;5.824;2022-10-13T23:44:51;15.4;98.5
45383;DHT22;42455;51.660;5.824;2022-10-13T23:49:57;15.3;98.5
45383;DHT22;42455;51.660;5.824;2022-10-13T23:55:02;15.3;98.5
